createdAt,value
2022-12-24T00:04:18.729Z,0
2022-12-24T00:09:20.639Z,0
2022-12-24T00:14:22.693Z,0
2022-12-24T00:19:24.548Z,0
2022-12-24T00:24:26.383Z,0
2022-12-24T00:29:28.357Z,0
2022-12-24T00:34:30.734Z,0.88715
2022-12-24T00:39:33.079Z,0
2022-12-24T00:44:34.905Z,0
2022-12-24T00:49:36.809Z,0.88715
2022-12-24T00:54:38.621Z,0
2022-12-24T00:59:40.513Z,0
2022-12-24T01:04:42.518Z,0
2022-12-24T01:09:44.427Z,0
2022-12-24T01:14:45.876Z,0
2022-12-24T01:19:47.469Z,0
2022-12-24T01:24:49.349Z,0
2022-12-24T01:29:50.921Z,0
2022-12-24T01:34:52.725Z,0.88715
2022-12-24T01:39:54.494Z,0
2022-12-24T01:44:56.472Z,0
2022-12-24T01:49:58.142Z,0
2022-12-24T01:55:00.331Z,0
2022-12-24T02:00:02.289Z,0.88715
2022-12-24T02:05:04.332Z,0
2022-12-24T02:10:06.063Z,0
2022-12-24T02:15:07.913Z,0
2022-12-24T02:20:09.955Z,0
2022-12-24T02:25:11.738Z,0.88715
2022-12-24T02:30:13.543Z,0.88715
2022-12-24T02:35:15.578Z,0.88715
2022-12-24T02:40:17.797Z,0.88715
2022-12-24T02:45:19.655Z,1.16185
2022-12-24T02:50:21.446Z,0.5333
2022-12-24T02:55:23.440Z,1.54065
2022-12-24T03:00:25.226Z,3.3184
2022-12-24T03:05:26.989Z,7.4693
2022-12-24T03:10:28.571Z,13.03895
2022-12-24T03:15:30.183Z,25.39525
2022-12-24T03:20:31.775Z,41.79045
2022-12-24T03:25:33.463Z,68.45785
2022-12-24T03:30:35.035Z,93.3549
2022-12-24T03:35:36.714Z,122.89935
2022-12-24T03:40:38.268Z,162.9556
2022-12-24T03:45:39.832Z,201.66555
2022-12-24T03:50:41.336Z,237.25885
2022-12-24T03:55:42.929Z,269.55105
2022-12-24T04:00:44.606Z,310.8243
2022-12-24T04:05:46.354Z,350.27205
2022-12-24T04:10:47.865Z,359.2721
2022-12-24T04:15:49.468Z,381.10765
2022-12-24T04:20:51.182Z,424.5943
2022-12-24T04:25:52.901Z,462.0131
2022-12-24T04:30:54.368Z,492.77455
2022-12-24T04:35:56.108Z,529.7883
2022-12-24T04:40:57.648Z,508.59925
2022-12-24T04:45:59.262Z,517.8579
2022-12-24T04:51:01.064Z,444.6822
2022-12-24T04:56:03.102Z,396.2154
2022-12-24T05:01:04.862Z,414.881
2022-12-24T05:06:06.919Z,435.99775
2022-12-24T05:11:08.417Z,497.9484
2022-12-24T05:16:09.900Z,510.33715
2022-12-24T05:21:11.436Z,569.0933
2022-12-24T05:26:13.011Z,689.47105
2022-12-24T05:31:14.633Z,701.24155
2022-12-24T05:36:16.776Z,626.2765
2022-12-24T05:41:18.707Z,520.6983
2022-12-24T05:46:20.565Z,536.22
2022-12-24T05:51:22.613Z,583.8678
2022-12-24T05:56:24.429Z,588.3442
2022-12-24T06:01:26.332Z,662.2009
2022-12-24T06:06:28.484Z,762.7601
2022-12-24T06:11:29.951Z,684.0074
2022-12-24T06:16:31.535Z,621.55045
2022-12-24T06:21:33.604Z,686.4368
2022-12-24T06:26:35.551Z,726.8501
2022-12-24T06:31:37.603Z,757.84145
2022-12-24T06:36:39.552Z,730.05
2022-12-24T06:41:41.489Z,752.09345
2022-12-24T06:46:43.457Z,772.3592
2022-12-24T06:51:45.249Z,699.41385
2022-12-24T06:56:46.859Z,838.31225
2022-12-24T07:01:48.608Z,906.8135
2022-12-24T07:06:50.552Z,905.98375
2022-12-24T07:11:52.063Z,986.4545
2022-12-24T07:16:58.765Z,963.52185
2022-12-24T07:22:00.920Z,930.0416
2022-12-24T07:27:02.757Z,966.0696
2022-12-24T07:32:04.657Z,984.14275
2022-12-24T07:37:06.606Z,990.1868
2022-12-24T07:42:08.647Z,995.57895
2022-12-24T07:47:10.631Z,1005.11925
2022-12-24T07:52:12.825Z,1010.57065
2022-12-24T07:57:14.748Z,1023.96275
2022-12-24T08:02:18.725Z,1032.79185
2022-12-24T08:07:21.306Z,1047.1321
2022-12-24T08:12:23.283Z,1056.7909
2022-12-24T08:17:30.331Z,1064.79055
2022-12-24T08:22:36.183Z,1080.3158
2022-12-24T08:27:38.120Z,1090.86365
2022-12-24T08:32:39.938Z,1096.2559
2022-12-24T08:37:42.109Z,1112.67005
2022-12-24T08:42:44.067Z,1128.8473
2022-12-24T08:47:46.212Z,1145.4393
2022-12-24T08:52:47.774Z,1157.52775
2022-12-24T08:57:49.656Z,1170.5051
2022-12-24T09:02:51.622Z,1188.5192
2022-12-24T09:07:53.377Z,1202.38555
2022-12-24T09:12:55.076Z,1205.1705
2022-12-24T09:17:56.741Z,1210.62215
2022-12-24T09:22:58.291Z,1228.99185
2022-12-24T09:28:00.041Z,1243.8062
2022-12-24T09:33:01.592Z,1256.7243
2022-12-24T09:38:03.647Z,1272.309
2022-12-24T09:43:05.172Z,1276.9903
2022-12-24T09:48:06.831Z,1286.175
2022-12-24T09:53:08.523Z,1306.91505
2022-12-24T09:58:09.980Z,1320.8998
2022-12-24T10:03:11.482Z,1330.79575
2022-12-24T10:08:13.170Z,1360.3651
2022-12-24T10:13:14.944Z,1389.40125
2022-12-24T10:18:16.494Z,1288.2497
2022-12-24T10:23:18.299Z,1117.88575
2022-12-24T10:28:20.208Z,1479.11655
2022-12-24T10:33:22.237Z,1478.34665
2022-12-24T10:38:24.810Z,1491.0874
2022-12-24T10:43:26.553Z,1499.85795
2022-12-24T10:48:28.228Z,1337.19775
2022-12-24T10:53:29.853Z,997.8928
2022-12-24T10:58:31.801Z,1319.54
2022-12-24T11:03:33.430Z,1594.61145
2022-12-24T11:08:35.183Z,1621.21815
2022-12-24T11:13:38.375Z,1545.0139
2022-12-24T11:18:45.143Z,1471.6538
2022-12-24T11:23:50.323Z,1008.7969
2022-12-24T11:28:52.171Z,861.95635
2022-12-24T11:33:53.629Z,1250.3879
2022-12-24T11:38:56.226Z,1457.84695
2022-12-24T11:43:57.823Z,1060.46915
2022-12-24T11:49:05.896Z,1132.34815
2022-12-24T11:54:09.726Z,1407.6566
2022-12-24T11:59:11.880Z,1437.5221
2022-12-24T12:04:13.674Z,1776.29515
2022-12-24T12:09:15.817Z,1669.27715
2022-12-24T12:14:18.122Z,1653.9298
2022-12-24T12:19:19.945Z,1159.07365
2022-12-24T12:24:25.461Z,1837.6867
2022-12-24T12:29:30.349Z,1842.60565
2022-12-24T12:34:32.168Z,1900.2041
2022-12-24T12:39:34.424Z,1917.5075
2022-12-24T12:44:36.608Z,1463.53865
2022-12-24T12:49:38.191Z,1659.4427
2022-12-24T12:54:40.204Z,1203.11015
2022-12-24T12:59:42.003Z,1392.60755
2022-12-24T13:04:44.090Z,1197.7078
2022-12-24T13:09:46.169Z,1038.18865
2022-12-24T13:14:48.115Z,1292.24725
2022-12-24T13:19:49.573Z,1143.33305
2022-12-24T13:24:52.168Z,708.2752
2022-12-24T13:29:54.038Z,684.7453
2022-12-24T13:34:55.624Z,710.88205
2022-12-24T13:39:57.706Z,718.42735
2022-12-24T13:44:59.377Z,781.557
2022-12-24T13:50:00.823Z,1642.06835
2022-12-24T13:55:02.326Z,1094.69155
2022-12-24T14:00:03.978Z,1812.70645
2022-12-24T14:05:05.952Z,1724.90825
2022-12-24T14:10:07.855Z,2206.1208
2022-12-24T14:15:10.009Z,1719.2436
2022-12-24T14:20:11.795Z,1116.62445
2022-12-24T14:25:13.509Z,1243.14235
2022-12-24T14:30:15.249Z,1943.91025
2022-12-24T14:35:17.216Z,2134.1056
2022-12-24T14:40:19.323Z,2176.1148
2022-12-24T14:45:21.039Z,2200.84455
2022-12-24T14:50:22.850Z,2152.57935
2022-12-24T14:55:24.656Z,2107.6894
2022-12-24T15:00:26.386Z,2008.46825
2022-12-24T15:05:28.107Z,1891.08155
2022-12-24T15:10:30.036Z,1819.5052
2022-12-24T15:15:32.045Z,1736.5671
2022-12-24T15:20:33.722Z,1630.5936
2022-12-24T15:25:35.465Z,1564.7695
2022-12-24T15:30:37.384Z,1429.7326
2022-12-24T15:35:39.273Z,1379.8245
2022-12-24T15:40:41.252Z,1253.08785
2022-12-24T15:45:43.217Z,1119.30595
2022-12-24T15:50:45.171Z,965.21925
2022-12-24T15:55:47.258Z,844.90035
2022-12-24T16:00:49.074Z,688.5641
2022-12-24T16:05:50.625Z,546.55795
2022-12-24T16:10:52.388Z,427.12515
2022-12-24T16:15:54.013Z,339.1916
2022-12-24T16:20:55.498Z,252.01485
2022-12-24T16:25:57.002Z,196.09775
2022-12-24T16:30:58.616Z,163.7314
2022-12-24T16:36:00.115Z,129.53955
2022-12-24T16:41:01.812Z,109.3812
2022-12-24T16:46:03.612Z,85.2581
2022-12-24T16:51:05.264Z,56.94965
2022-12-24T16:56:07.099Z,35.0038
2022-12-24T17:01:09.108Z,23.1267
2022-12-24T17:06:10.855Z,8.63115
2022-12-24T17:11:12.533Z,4.59225
2022-12-24T17:16:14.140Z,3.85445
2022-12-24T17:21:15.803Z,0.4148
2022-12-24T17:26:17.543Z,0
2022-12-24T17:31:19.479Z,0.88715
2022-12-24T17:36:21.176Z,0.88715
2022-12-24T17:41:22.861Z,0.88715
2022-12-24T17:46:24.483Z,0
2022-12-24T17:51:26.302Z,0
2022-12-24T17:56:27.831Z,0
2022-12-24T18:01:29.913Z,0.88715
2022-12-24T18:06:31.809Z,0
2022-12-24T18:11:33.824Z,0
2022-12-24T18:16:35.702Z,0
2022-12-24T18:21:37.615Z,0
2022-12-24T18:26:39.525Z,0
2022-12-24T18:31:41.480Z,0.88715
2022-12-24T18:36:43.150Z,0
2022-12-24T18:41:45.719Z,0
2022-12-24T18:46:47.550Z,0
2022-12-24T18:51:49.069Z,0
2022-12-24T18:56:50.519Z,0
2022-12-24T19:01:52.541Z,0.88715
2022-12-24T19:06:54.219Z,0
2022-12-24T19:11:55.891Z,0
2022-12-24T19:16:57.555Z,0
2022-12-24T19:21:59.356Z,0
2022-12-24T19:27:01.328Z,0
2022-12-24T19:32:03.566Z,0
2022-12-24T19:37:05.509Z,0
2022-12-24T19:42:07.505Z,0
2022-12-24T19:47:09.487Z,0
2022-12-24T19:52:11.863Z,0
2022-12-24T19:57:13.648Z,0
2022-12-24T20:02:15.737Z,0
2022-12-24T20:07:17.791Z,0
2022-12-24T20:12:19.749Z,0
2022-12-24T20:17:21.808Z,0
2022-12-24T20:22:23.588Z,0
2022-12-24T20:27:25.373Z,0
2022-12-24T20:32:29.542Z,0
2022-12-24T20:37:31.556Z,0
2022-12-24T20:42:33.537Z,0
2022-12-24T20:47:35.569Z,0
2022-12-24T20:52:37.474Z,0
2022-12-24T20:57:39.228Z,0
2022-12-24T21:02:41.250Z,0
2022-12-24T21:07:43.109Z,0
2022-12-24T21:12:45.114Z,0
2022-12-24T21:17:46.933Z,0
2022-12-24T21:22:48.812Z,0
2022-12-24T21:27:50.613Z,0.88715
2022-12-24T21:32:52.359Z,0.88715
2022-12-24T21:37:53.818Z,0
2022-12-24T21:42:56.137Z,0
2022-12-24T21:47:57.936Z,0
2022-12-24T21:52:59.459Z,0
2022-12-24T21:58:01.241Z,0
2022-12-24T22:03:03.057Z,0
2022-12-24T22:08:04.647Z,0
2022-12-24T22:13:06.803Z,0
2022-12-24T22:18:08.901Z,0
2022-12-24T22:23:10.737Z,0
2022-12-24T22:28:12.634Z,0
2022-12-24T22:33:14.613Z,0
2022-12-24T22:38:16.416Z,0
2022-12-24T22:43:18.521Z,0
2022-12-24T22:48:20.138Z,0
2022-12-24T22:53:22.244Z,0
2022-12-24T22:58:24.029Z,0
2022-12-24T23:03:26.088Z,0
2022-12-24T23:08:27.715Z,0
2022-12-24T23:13:29.919Z,0
2022-12-24T23:18:31.828Z,0
2022-12-24T23:23:37.061Z,0
2022-12-24T23:28:39.406Z,0.88715
2022-12-24T23:33:41.593Z,0
2022-12-24T23:38:43.470Z,0
2022-12-24T23:43:45.692Z,0.88715
2022-12-24T23:48:47.660Z,0
2022-12-24T23:53:49.555Z,0
2022-12-24T23:58:51.347Z,0
